createdAt,value
2023-04-15T00:01:55.215Z,4.35
2023-04-15T00:04:25.160Z,4.80
2023-04-15T00:06:55.700Z,4.50
2023-04-15T00:09:25.431Z,4.50
2023-04-15T00:11:55.018Z,5.40
2023-04-15T00:14:27.235Z,5.13
2023-04-15T00:16:57.741Z,4.82
2023-04-15T00:19:27.680Z,4.72
2023-04-15T00:21:57.407Z,4.15
2023-04-15T00:24:27.096Z,4.60
2023-04-15T00:26:56.731Z,4.07
2023-04-15T00:29:28.952Z,3.95
2023-04-15T00:31:58.652Z,4.28
2023-04-15T00:34:28.251Z,3.40
2023-04-15T00:36:57.900Z,3.97
2023-04-15T00:39:28.333Z,4.25
2023-04-15T00:41:58.109Z,4.38
2023-04-15T00:44:30.367Z,4.35
2023-04-15T00:47:00.363Z,4.22
2023-04-15T00:49:30.947Z,3.97
2023-04-15T00:52:00.619Z,4.50
2023-04-15T00:54:30.280Z,4.15
2023-04-15T00:57:01.241Z,4.50
2023-04-15T00:59:33.601Z,4.00
2023-04-15T01:02:03.461Z,3.88
2023-04-15T01:04:33.807Z,3.88
2023-04-15T01:07:03.453Z,3.33
2023-04-15T01:09:33.452Z,3.40
2023-04-15T01:12:04.329Z,3.65
2023-04-15T01:14:37.204Z,3.65
2023-04-15T01:17:07.657Z,4.03
2023-04-15T01:19:37.575Z,3.88
2023-04-15T01:22:07.320Z,4.40
2023-04-15T01:24:37.088Z,4.22
2023-04-15T01:27:09.258Z,4.18
2023-04-15T01:29:40.857Z,4.20
2023-04-15T01:32:10.972Z,3.63
2023-04-15T01:34:40.542Z,4.45
2023-04-15T01:37:10.144Z,3.80
2023-04-15T01:39:39.764Z,4.10
2023-04-15T01:42:12.052Z,4.28
2023-04-15T01:44:41.792Z,3.88
2023-04-15T01:47:15.034Z,4.38
2023-04-15T01:49:44.790Z,4.05
2023-04-15T01:52:14.569Z,4.18
2023-04-15T01:54:44.225Z,4.28
2023-04-15T01:57:17.540Z,4.28
2023-04-15T01:59:48.032Z,4.47
2023-04-15T02:02:18.269Z,4.22
2023-04-15T02:04:47.898Z,4.28
2023-04-15T02:07:19.846Z,4.07
2023-04-15T02:09:49.472Z,4.50
2023-04-15T02:12:22.266Z,4.75
2023-04-15T02:14:52.466Z,4.15
2023-04-15T02:17:22.123Z,4.00
2023-04-15T02:19:51.671Z,4.13
2023-04-15T02:22:21.209Z,4.18
2023-04-15T02:24:50.759Z,4.07
2023-04-15T02:27:22.972Z,3.95
2023-04-15T02:29:53.304Z,3.70
2023-04-15T02:32:24.657Z,3.75
2023-04-15T02:34:55.829Z,4.07
2023-04-15T02:37:27.835Z,4.05
2023-04-15T02:39:58.479Z,3.60
2023-04-15T02:42:32.129Z,3.90
2023-04-15T02:45:03.619Z,3.78
2023-04-15T02:47:36.662Z,4.53
2023-04-15T02:50:12.612Z,4.25
2023-04-15T02:52:44.869Z,4.22
2023-04-15T02:55:14.709Z,4.57
2023-04-15T02:57:47.072Z,3.50
2023-04-15T03:00:17.200Z,3.95
2023-04-15T03:02:52.769Z,4.32
2023-04-15T03:05:23.746Z,4.55
2023-04-15T03:07:53.760Z,4.25
2023-04-15T03:10:24.030Z,4.25
2023-04-15T03:12:56.523Z,4.10
2023-04-15T03:15:27.300Z,5.47
2023-04-15T03:17:57.826Z,4.60
2023-04-15T03:20:27.831Z,4.47
2023-04-15T03:22:57.432Z,4.35
2023-04-15T03:25:28.212Z,4.38
2023-04-15T03:28:00.354Z,4.45
2023-04-15T03:30:30.073Z,4.57
2023-04-15T03:32:59.800Z,4.32
2023-04-15T03:35:29.727Z,3.92
2023-04-15T03:37:59.287Z,4.28
2023-04-15T03:40:28.859Z,4.20
2023-04-15T03:43:01.149Z,4.10
2023-04-15T03:45:30.749Z,4.80
2023-04-15T03:48:15.605Z,4.68
2023-04-15T03:50:46.660Z,4.60
2023-04-15T03:53:16.219Z,5.00
2023-04-15T03:55:45.833Z,4.20
2023-04-15T03:58:18.035Z,4.25
2023-04-15T04:00:47.614Z,4.13
2023-04-15T04:03:17.671Z,4.10
2023-04-15T04:05:47.415Z,5.10
2023-04-15T04:08:17.070Z,4.65
2023-04-15T04:10:46.691Z,4.75
2023-04-15T04:13:18.881Z,4.47
2023-04-15T04:15:48.572Z,4.97
2023-04-15T04:18:18.206Z,4.70
2023-04-15T04:20:47.769Z,4.43
2023-04-15T04:23:17.368Z,5.00
2023-04-15T04:25:46.932Z,4.30
2023-04-15T04:28:19.183Z,4.63
2023-04-15T04:30:48.811Z,4.93
2023-04-15T04:33:18.377Z,4.80
2023-04-15T04:35:48.062Z,4.38
2023-04-15T04:38:17.600Z,5.07
2023-04-15T04:40:47.223Z,3.97
2023-04-15T04:43:19.571Z,4.47
2023-04-15T04:45:49.193Z,4.20
2023-04-15T04:48:18.815Z,4.28
2023-04-15T04:50:48.540Z,4.25
2023-04-15T04:53:18.322Z,3.63
2023-04-15T04:55:48.014Z,4.43
2023-04-15T04:58:20.240Z,4.18
2023-04-15T05:00:49.839Z,3.50
2023-04-15T05:03:19.652Z,4.18
2023-04-15T05:05:49.861Z,4.22
2023-04-15T05:08:19.564Z,3.60
2023-04-15T05:10:49.380Z,4.25
2023-04-15T05:13:22.026Z,3.67
2023-04-15T05:15:51.859Z,3.78
2023-04-15T05:18:21.524Z,3.83
2023-04-15T05:20:51.420Z,3.42
2023-04-15T05:23:21.041Z,3.70
2023-04-15T05:25:50.652Z,3.65
2023-04-15T05:28:22.945Z,3.85
2023-04-15T05:30:52.669Z,3.72
2023-04-15T05:33:22.376Z,3.72
2023-04-15T05:35:52.011Z,4.15
2023-04-15T05:38:21.554Z,3.60
2023-04-15T05:40:51.155Z,3.58
2023-04-15T05:43:23.394Z,3.42
2023-04-15T05:45:53.417Z,3.30
2023-04-15T05:48:22.998Z,4.15
2023-04-15T05:50:52.702Z,3.78
2023-04-15T05:53:22.601Z,3.70
2023-04-15T05:55:52.352Z,3.63
2023-04-15T05:58:24.499Z,3.70
2023-04-15T06:00:54.293Z,3.58
2023-04-15T06:03:23.932Z,4.50
2023-04-15T06:05:53.675Z,4.30
2023-04-15T06:08:23.250Z,4.28
2023-04-15T06:10:52.847Z,4.63
2023-04-15T06:13:25.093Z,4.60
2023-04-15T06:15:54.789Z,4.18
2023-04-15T06:18:24.439Z,4.38
2023-04-15T06:20:54.161Z,4.07
2023-04-15T06:23:24.078Z,3.80
2023-04-15T06:25:54.579Z,3.70
2023-04-15T06:28:26.719Z,4.22
2023-04-15T06:30:56.503Z,4.15
2023-04-15T06:33:26.153Z,3.80
2023-04-15T06:35:55.782Z,3.97
2023-04-15T06:38:25.586Z,4.13
2023-04-15T06:40:55.244Z,4.20
2023-04-15T06:43:27.449Z,4.65
2023-04-15T06:45:57.158Z,4.22
2023-04-15T06:48:27.702Z,5.63
2023-04-15T06:50:58.473Z,5.10
2023-04-15T06:53:28.321Z,4.57
2023-04-15T06:55:57.911Z,4.90
2023-04-15T06:58:30.185Z,5.28
2023-04-15T07:00:59.936Z,4.30
2023-04-15T07:03:31.444Z,4.53
2023-04-15T07:06:06.836Z,4.85
2023-04-15T07:08:36.600Z,5.10
2023-04-15T07:11:06.384Z,4.88
2023-04-15T07:13:38.606Z,4.18
2023-04-15T07:16:09.099Z,4.90
2023-04-15T07:18:38.746Z,4.60
2023-04-15T07:21:08.625Z,4.93
2023-04-15T07:23:38.264Z,4.70
2023-04-15T07:26:08.303Z,4.20
2023-04-15T07:28:40.693Z,4.25
2023-04-15T07:31:10.463Z,4.35
2023-04-15T07:33:40.038Z,4.25
2023-04-15T07:36:09.653Z,4.47
2023-04-15T07:38:39.283Z,4.13
2023-04-15T07:41:09.377Z,3.67
2023-04-15T07:43:41.596Z,4.47
2023-04-15T07:46:11.311Z,4.20
2023-04-15T07:48:40.945Z,4.78
2023-04-15T07:51:11.046Z,4.00
2023-04-15T07:53:40.629Z,5.20
2023-04-15T07:56:10.435Z,4.30
2023-04-15T07:58:42.701Z,4.88
2023-04-15T08:01:12.708Z,4.72
2023-04-15T08:03:43.315Z,4.97
2023-04-15T08:06:13.219Z,5.00
2023-04-15T08:08:43.426Z,4.72
2023-04-15T08:11:13.003Z,5.28
2023-04-15T08:13:45.213Z,5.18
2023-04-15T08:16:20.379Z,4.60
2023-04-15T08:18:50.572Z,5.00
2023-04-15T08:21:20.650Z,5.40
2023-04-15T08:23:51.275Z,4.35
2023-04-15T08:26:21.238Z,4.93
2023-04-15T08:28:53.584Z,4.68
2023-04-15T08:31:23.246Z,4.82
2023-04-15T08:33:55.086Z,4.53
2023-04-15T08:36:24.722Z,6.00
2023-04-15T08:38:54.277Z,4.70
2023-04-15T08:41:25.512Z,3.50
2023-04-15T08:44:00.502Z,4.15
2023-04-15T08:46:31.034Z,4.05
2023-04-15T08:49:01.539Z,4.07
2023-04-15T08:51:31.376Z,4.10
2023-04-15T08:54:01.747Z,4.57
2023-04-15T08:56:33.953Z,4.03
2023-04-15T08:59:06.529Z,3.67
2023-04-15T09:01:36.841Z,3.83
2023-04-15T09:04:08.279Z,4.25
2023-04-15T09:06:38.214Z,4.10
2023-04-15T09:09:08.196Z,3.50
2023-04-15T09:11:37.791Z,3.95
2023-04-15T09:14:10.125Z,3.88
2023-04-15T09:16:54.889Z,3.45
2023-04-15T09:19:25.912Z,3.50
2023-04-15T09:21:58.789Z,3.97
2023-04-15T09:24:37.578Z,3.72
2023-04-15T09:27:07.295Z,3.85
2023-04-15T09:29:40.010Z,3.45
2023-04-15T09:32:13.584Z,4.03
2023-04-15T09:34:43.294Z,3.42
2023-04-15T09:37:24.613Z,3.28
2023-04-15T09:40:01.179Z,3.92
2023-04-15T09:42:31.038Z,4.03
2023-04-15T09:45:13.726Z,3.70
2023-04-15T09:47:43.381Z,4.10
2023-04-15T09:50:13.142Z,4.20
2023-04-15T09:52:44.801Z,4.15
2023-04-15T09:55:15.167Z,4.55
2023-04-15T09:57:44.874Z,3.95
2023-04-15T10:00:17.879Z,4.35
2023-04-15T10:02:50.131Z,4.32
2023-04-15T10:05:20.627Z,3.85
2023-04-15T10:07:50.342Z,4.35
2023-04-15T10:10:20.118Z,3.40
2023-04-15T10:12:50.008Z,4.53
2023-04-15T10:15:23.443Z,3.83
2023-04-15T10:17:54.103Z,7.05
2023-04-15T10:20:23.898Z,4.70
2023-04-15T10:22:54.311Z,7.20
2023-04-15T10:25:24.417Z,5.18
2023-04-15T10:27:54.519Z,4.10
2023-04-15T10:30:26.791Z,4.40
2023-04-15T10:32:56.796Z,4.07
2023-04-15T10:35:27.168Z,4.20
2023-04-15T10:37:56.861Z,4.35
2023-04-15T10:40:31.770Z,3.42
2023-04-15T10:43:02.649Z,3.08
2023-04-15T10:45:37.055Z,2.90
2023-04-15T10:48:07.472Z,2.70
2023-04-15T10:50:37.241Z,2.72
2023-04-15T10:53:07.559Z,2.92
2023-04-15T10:55:37.415Z,1.98
2023-04-15T10:58:07.865Z,1.92
2023-04-15T11:00:40.336Z,2.25
2023-04-15T11:03:10.639Z,2.40
2023-04-15T11:05:53.339Z,2.20
2023-04-15T11:08:23.383Z,2.05
2023-04-15T11:10:54.793Z,2.80
2023-04-15T11:13:27.282Z,2.67
2023-04-15T11:16:02.162Z,2.17
2023-04-15T11:18:33.506Z,2.42
2023-04-15T11:21:04.097Z,2.20
2023-04-15T11:23:35.014Z,2.60
2023-04-15T11:26:05.884Z,3.13
2023-04-15T11:28:36.828Z,2.78
2023-04-15T11:31:14.460Z,3.05
2023-04-15T11:33:50.589Z,2.50
2023-04-15T11:36:20.332Z,2.67
2023-04-15T11:38:50.375Z,2.40
2023-04-15T11:41:23.167Z,3.72
2023-04-15T11:43:53.330Z,3.42
2023-04-15T11:46:31.632Z,2.55
2023-04-15T11:49:01.341Z,3.45
2023-04-15T11:51:35.071Z,3.90
2023-04-15T11:54:05.233Z,2.25
2023-04-15T11:56:35.150Z,2.35
2023-04-15T11:59:04.813Z,2.83
2023-04-15T12:01:39.589Z,2.88
2023-04-15T12:04:14.490Z,2.35
2023-04-15T12:06:44.303Z,2.55
2023-04-15T12:09:15.167Z,2.67
2023-04-15T12:11:46.191Z,2.58
2023-04-15T12:14:18.952Z,2.58
2023-04-15T12:16:52.837Z,1.92
2023-04-15T12:19:26.525Z,2.55
2023-04-15T12:21:57.837Z,2.15
2023-04-15T12:24:29.236Z,2.20
2023-04-15T12:27:02.044Z,1.92
2023-04-15T12:29:32.513Z,2.08
2023-04-15T12:32:08.332Z,2.08
2023-04-15T12:34:38.697Z,2.10
2023-04-15T12:37:09.681Z,2.10
2023-04-15T12:39:40.074Z,1.70
2023-04-15T12:42:09.923Z,2.10
2023-04-15T12:44:39.643Z,2.08
2023-04-15T12:47:12.786Z,1.90
2023-04-15T12:49:42.456Z,2.13
2023-04-15T12:52:12.051Z,2.53
2023-04-15T12:54:42.242Z,1.80
2023-04-15T12:57:11.818Z,1.60
2023-04-15T12:59:41.384Z,1.95
2023-04-15T13:02:13.948Z,2.13
2023-04-15T13:04:43.735Z,1.77
2023-04-15T13:07:13.820Z,1.63
2023-04-15T13:09:43.394Z,1.90
2023-04-15T13:12:14.040Z,1.90
2023-04-15T13:14:43.740Z,1.73
2023-04-15T13:17:18.282Z,2.08
2023-04-15T13:19:47.851Z,2.15
2023-04-15T13:22:17.479Z,2.13
2023-04-15T13:24:47.366Z,2.60
2023-04-15T13:27:16.924Z,2.30
2023-04-15T13:29:46.508Z,1.88
2023-04-15T13:32:18.727Z,1.92
2023-04-15T13:34:48.390Z,1.75
2023-04-15T13:37:17.944Z,1.70
2023-04-15T13:39:47.582Z,1.73
2023-04-15T13:42:17.126Z,1.77
2023-04-15T13:44:46.786Z,1.83
2023-04-15T13:47:19.041Z,1.42
2023-04-15T13:49:48.828Z,1.42
2023-04-15T13:52:18.396Z,1.83
2023-04-15T13:54:48.024Z,2.40
2023-04-15T13:57:37.685Z,2.70
2023-04-15T14:00:07.869Z,1.80
2023-04-15T14:02:40.892Z,1.52
2023-04-15T14:05:11.089Z,1.92
2023-04-15T14:07:41.049Z,1.70
2023-04-15T14:10:11.247Z,1.38
2023-04-15T14:12:40.859Z,1.70
2023-04-15T14:15:11.101Z,1.80
2023-04-15T14:17:43.405Z,1.77
2023-04-15T14:20:15.521Z,1.67
2023-04-15T14:22:46.746Z,1.85
2023-04-15T14:25:30.582Z,1.40
2023-04-15T14:28:02.693Z,1.90
2023-04-15T14:30:32.291Z,1.42
2023-04-15T14:33:04.599Z,2.00
2023-04-15T14:35:34.488Z,1.70
2023-04-15T14:38:04.142Z,1.77
2023-04-15T14:40:33.849Z,1.75
2023-04-15T14:43:03.490Z,1.85
2023-04-15T14:45:33.208Z,1.88
2023-04-15T14:48:06.662Z,2.78
2023-04-15T14:50:36.482Z,2.42
2023-04-15T14:53:06.054Z,2.13
2023-04-15T14:55:36.267Z,2.20
2023-04-15T14:58:06.230Z,2.22
2023-04-15T15:00:36.028Z,2.85
2023-04-15T15:03:13.087Z,3.38
2023-04-15T15:05:42.991Z,2.83
2023-04-15T15:08:13.058Z,2.75
2023-04-15T15:10:49.289Z,2.40
2023-04-15T15:13:19.754Z,2.03
2023-04-15T15:15:49.887Z,1.85
2023-04-15T15:18:22.273Z,1.88
2023-04-15T15:20:52.060Z,2.10
2023-04-15T15:23:21.671Z,1.90
2023-04-15T15:25:51.253Z,2.10
2023-04-15T15:28:21.994Z,1.98
2023-04-15T15:30:51.631Z,2.28
2023-04-15T15:33:23.866Z,2.20
2023-04-15T15:35:53.731Z,2.60
2023-04-15T15:38:23.357Z,2.35
2023-04-15T15:40:52.950Z,2.60
2023-04-15T15:43:22.493Z,2.47
2023-04-15T15:45:55.626Z,2.55
2023-04-15T15:48:28.648Z,2.70
2023-04-15T15:50:58.303Z,2.72
2023-04-15T15:53:27.868Z,3.35
2023-04-15T15:55:57.534Z,2.88
2023-04-15T15:58:27.137Z,2.63
2023-04-15T16:00:56.831Z,3.33
2023-04-15T16:03:29.219Z,2.33
2023-04-15T16:05:58.906Z,3.92
2023-04-15T16:08:28.459Z,3.38
2023-04-15T16:10:58.089Z,3.03
2023-04-15T16:13:27.695Z,4.38
2023-04-15T16:15:57.316Z,3.35
2023-04-15T16:18:29.574Z,3.08
2023-04-15T16:20:59.902Z,2.80
2023-04-15T16:23:29.521Z,3.40
2023-04-15T16:25:59.127Z,3.20
2023-04-15T16:28:28.737Z,2.40
2023-04-15T16:30:58.414Z,2.80
2023-04-15T16:33:30.620Z,2.92
2023-04-15T16:36:00.281Z,3.13
2023-04-15T16:38:29.944Z,3.03
2023-04-15T16:41:01.775Z,3.28
2023-04-15T16:43:31.902Z,2.60
2023-04-15T16:46:01.762Z,2.97
2023-04-15T16:48:34.003Z,2.83
2023-04-15T16:51:03.866Z,2.60
2023-04-15T16:53:33.472Z,3.92
2023-04-15T16:56:03.250Z,3.08
2023-04-15T16:58:32.824Z,3.40
2023-04-15T17:01:02.565Z,2.35
2023-04-15T17:03:35.099Z,2.63
2023-04-15T17:06:04.896Z,2.70
2023-04-15T17:08:34.480Z,2.42
2023-04-15T17:11:04.241Z,2.38
2023-04-15T17:13:33.889Z,2.50
2023-04-15T17:16:03.557Z,2.78
2023-04-15T17:18:35.829Z,2.40
2023-04-15T17:21:05.865Z,2.45
2023-04-15T17:23:35.622Z,2.90
2023-04-15T17:26:05.231Z,2.60
2023-04-15T17:28:34.891Z,2.35
2023-04-15T17:31:04.514Z,3.00
2023-04-15T17:34:00.068Z,3.53
2023-04-15T17:36:27.171Z,2.53
2023-04-15T17:38:57.236Z,2.53
2023-04-15T17:41:27.021Z,4.22
2023-04-15T17:43:56.670Z,3.80
2023-04-15T17:46:26.447Z,2.80
2023-04-15T17:48:58.615Z,3.45
2023-04-15T17:51:28.264Z,8.90
2023-04-15T17:54:09.422Z,4.38
2023-04-15T17:56:39.106Z,3.10
2023-04-15T17:59:10.090Z,3.15
2023-04-15T18:01:39.792Z,3.67
2023-04-15T18:04:12.383Z,3.03
2023-04-15T18:06:42.323Z,3.50
2023-04-15T18:09:11.953Z,2.85
2023-04-15T18:11:44.099Z,2.63
2023-04-15T18:14:15.704Z,2.53
2023-04-15T18:16:54.299Z,2.80
2023-04-15T18:19:26.519Z,2.05
2023-04-15T18:21:56.565Z,3.38
2023-04-15T18:24:26.174Z,2.50
2023-04-15T18:26:56.688Z,2.15
2023-04-15T18:29:26.336Z,2.83
2023-04-15T18:31:55.986Z,2.30
2023-04-15T18:34:28.282Z,2.47
2023-04-15T18:36:58.716Z,2.10
2023-04-15T18:39:28.727Z,3.00
2023-04-15T18:41:58.457Z,2.70
2023-04-15T18:44:28.595Z,1.83
2023-04-15T18:46:58.200Z,2.38
2023-04-15T18:49:30.400Z,2.63
2023-04-15T18:52:00.131Z,2.63
2023-04-15T18:54:29.752Z,2.97
2023-04-15T18:56:59.497Z,2.80
2023-04-15T18:59:30.729Z,3.38
2023-04-15T19:02:01.483Z,2.75
2023-04-15T19:04:33.878Z,2.63
2023-04-15T19:07:04.332Z,2.05
2023-04-15T19:09:34.232Z,2.50
2023-04-15T19:12:03.871Z,2.30
2023-04-15T19:14:33.482Z,2.45
2023-04-15T19:17:03.154Z,2.40
2023-04-15T19:19:35.364Z,2.42
2023-04-15T19:22:05.020Z,2.20
2023-04-15T19:24:35.334Z,2.00
2023-04-15T19:27:05.181Z,1.70
2023-04-15T19:29:34.884Z,2.00
2023-04-15T19:32:04.527Z,2.10
2023-04-15T19:34:36.735Z,2.15
2023-04-15T19:37:06.402Z,1.98
2023-04-15T19:39:36.069Z,2.50
2023-04-15T19:42:05.754Z,1.98
2023-04-15T19:44:35.345Z,2.20
2023-04-15T19:47:04.993Z,2.70
2023-04-15T19:49:37.304Z,2.55
2023-04-15T19:52:07.326Z,2.53
2023-04-15T19:54:37.121Z,2.25
2023-04-15T19:57:06.967Z,2.55
2023-04-15T19:59:37.894Z,2.55
2023-04-15T20:02:07.724Z,2.72
2023-04-15T20:04:40.012Z,2.60
2023-04-15T20:07:10.312Z,2.72
2023-04-15T20:09:40.295Z,2.70
2023-04-15T20:12:50.810Z,2.70
2023-04-15T20:14:59.572Z,2.40
2023-04-15T20:17:29.236Z,2.58
2023-04-15T20:20:01.486Z,3.00
2023-04-15T20:22:31.115Z,2.13
2023-04-15T20:25:00.832Z,2.28
2023-04-15T20:27:31.108Z,2.40
2023-04-15T20:30:00.843Z,2.03
2023-04-15T20:32:32.859Z,2.03
2023-04-15T20:35:05.170Z,2.58
2023-04-15T20:37:36.428Z,2.03
2023-04-15T20:40:06.336Z,2.67
2023-04-15T20:42:36.485Z,2.22
2023-04-15T20:45:07.215Z,1.75
2023-04-15T20:47:36.835Z,2.78
2023-04-15T20:50:09.784Z,2.15
2023-04-15T20:52:39.421Z,2.28
2023-04-15T20:55:09.829Z,2.92
2023-04-15T20:57:39.421Z,2.42
2023-04-15T21:00:11.059Z,2.63
2023-04-15T21:02:40.830Z,2.22
2023-04-15T21:05:13.277Z,2.20
2023-04-15T21:07:43.195Z,2.38
2023-04-15T21:10:13.028Z,2.50
2023-04-15T21:12:42.765Z,2.70
2023-04-15T21:15:13.184Z,2.50
2023-04-15T21:17:42.846Z,2.83
2023-04-15T21:20:15.837Z,2.60
2023-04-15T21:22:45.507Z,2.55
2023-04-15T21:25:15.132Z,3.05
2023-04-15T21:27:44.776Z,3.00
2023-04-15T21:30:15.593Z,3.00
2023-04-15T21:32:45.277Z,2.97
2023-04-15T21:35:17.665Z,3.03
2023-04-15T21:37:47.300Z,2.90
2023-04-15T21:40:18.808Z,2.65
2023-04-15T21:42:49.060Z,2.42
2023-04-15T21:45:18.774Z,2.70
2023-04-15T21:47:56.862Z,2.75
2023-04-15T21:50:39.611Z,2.58
2023-04-15T21:53:10.518Z,2.90
2023-04-15T21:55:40.118Z,2.67
2023-04-15T21:58:09.642Z,2.95
2023-04-15T22:00:40.996Z,2.63
2023-04-15T22:03:11.276Z,2.75
2023-04-15T22:05:46.034Z,3.08
2023-04-15T22:08:15.656Z,2.88
2023-04-15T22:10:45.311Z,2.97
2023-04-15T22:13:15.011Z,3.13
2023-04-15T22:15:44.643Z,2.50
2023-04-15T22:18:14.831Z,2.58
2023-04-15T22:20:47.009Z,3.08
2023-04-15T22:23:20.058Z,2.70
2023-04-15T22:25:50.006Z,3.13
2023-04-15T22:28:19.793Z,2.65
2023-04-15T22:30:49.319Z,3.00
2023-04-15T22:33:18.843Z,3.03
2023-04-15T22:35:51.604Z,2.85
2023-04-15T22:38:21.253Z,3.20
2023-04-15T22:40:51.966Z,2.90
2023-04-15T22:43:21.592Z,2.95
2023-04-15T22:45:53.153Z,3.28
2023-04-15T22:48:23.147Z,3.45
2023-04-15T22:50:55.392Z,2.78
2023-04-15T22:53:25.054Z,2.85
2023-04-15T22:55:54.679Z,2.83
2023-04-15T22:58:24.244Z,2.47
2023-04-15T23:00:53.895Z,2.80
2023-04-15T23:03:23.538Z,2.60
2023-04-15T23:05:55.812Z,3.10
2023-04-15T23:08:26.407Z,2.47
2023-04-15T23:10:56.003Z,2.97
2023-04-15T23:13:25.759Z,3.75
2023-04-15T23:15:55.398Z,2.85
2023-04-15T23:18:25.015Z,3.38
2023-04-15T23:20:57.409Z,3.22
2023-04-15T23:23:29.873Z,3.15
2023-04-15T23:25:59.732Z,3.30
2023-04-15T23:28:29.286Z,2.72
2023-04-15T23:31:00.714Z,2.97
2023-04-15T23:33:30.422Z,3.25
2023-04-15T23:36:02.919Z,2.90
2023-04-15T23:38:32.515Z,3.20
2023-04-15T23:41:02.239Z,2.63
2023-04-15T23:43:31.991Z,2.90
2023-04-15T23:46:02.011Z,2.97
2023-04-15T23:48:31.681Z,2.97
2023-04-15T23:51:04.552Z,3.05
2023-04-15T23:53:34.237Z,2.67
2023-04-15T23:56:04.200Z,3.10
2023-04-15T23:58:34.673Z,3.40
